sensor_id;sensor_type;location;lat;lon;timestamp;P1;durP1;ratioP1;P2;durP2;ratioP2
58214;SDS011;44011;52.218;1.480;2022-10-16T00:02:15;10.05;;;2.92;;
58214;SDS011;44011;52.218;1.480;2022-10-16T00:04:40;9.68;;;2.33;;
58214;SDS011;44011;52.218;1.480;2022-10-16T00:07:06;12.15;;;2.80;;
58214;SDS011;44011;52.218;1.480;2022-10-16T00:09:32;11.43;;;2.35;;
58214;SDS011;44011;52.218;1.480;2022-10-16T00:11:57;9.13;;;1.90;;
58214;SDS011;44011;52.218;1.480;2022-10-16T00:14:23;10.90;;;2.20;;
58214;SDS011;44011;52.218;1.480;2022-10-16T00:16:48;9.38;;;1.90;;
58214;SDS011;44011;52.218;1.480;2022-10-16T00:19:14;11.55;;;2.50;;
58214;SDS011;44011;52.218;1.480;2022-10-16T00:21:39;11.32;;;2.42;;
58214;SDS011;44011;52.218;1.480;2022-10-16T00:24:06;20.15;;;3.22;;
58214;SDS011;44011;52.218;1.480;2022-10-16T00:26:34;12.60;;;2.75;;
58214;SDS011;44011;52.218;1.480;2022-10-16T00:29:00;10.65;;;2.00;;
58214;SDS011;44011;52.218;1.480;2022-10-16T00:31:26;8.43;;;2.22;;
58214;SDS011;44011;52.218;1.480;2022-10-16T00:33:52;14.43;;;2.00;;
58214;SDS011;44011;52.218;1.480;2022-10-16T00:36:19;14.25;;;3.40;;
58214;SDS011;44011;52.218;1.480;2022-10-16T00:38:46;7.70;;;2.38;;
58214;SDS011;44011;52.218;1.480;2022-10-16T00:41:12;13.85;;;2.30;;
58214;SDS011;44011;52.218;1.480;2022-10-16T00:43:44;15.60;;;2.65;;
58214;SDS011;44011;52.218;1.480;2022-10-16T00:46:16;17.25;;;3.10;;
58214;SDS011;44011;52.218;1.480;2022-10-16T00:48:47;17.58;;;2.67;;
58214;SDS011;44011;52.218;1.480;2022-10-16T00:51:35;8.60;;;1.90;;
58214;SDS011;44011;52.218;1.480;2022-10-16T00:54:03;12.48;;;2.53;;
58214;SDS011;44011;52.218;1.480;2022-10-16T00:56:30;9.93;;;2.53;;
58214;SDS011;44011;52.218;1.480;2022-10-16T00:58:56;10.57;;;2.80;;
58214;SDS011;44011;52.218;1.480;2022-10-16T01:01:23;12.60;;;2.30;;
58214;SDS011;44011;52.218;1.480;2022-10-16T01:03:48;12.20;;;2.58;;
58214;SDS011;44011;52.218;1.480;2022-10-16T01:06:24;9.65;;;2.03;;
58214;SDS011;44011;52.218;1.480;2022-10-16T01:08:58;13.27;;;2.95;;
58214;SDS011;44011;52.218;1.480;2022-10-16T01:11:38;15.27;;;2.90;;
58214;SDS011;44011;52.218;1.480;2022-10-16T01:14:48;16.00;;;2.95;;
58214;SDS011;44011;52.218;1.480;2022-10-16T01:17:43;7.03;;;2.95;;
58214;SDS011;44011;52.218;1.480;2022-10-16T01:20:17;19.73;;;3.30;;
58214;SDS011;44011;52.218;1.480;2022-10-16T01:22:53;10.27;;;2.05;;
58214;SDS011;44011;52.218;1.480;2022-10-16T01:25:30;10.05;;;2.53;;
58214;SDS011;44011;52.218;1.480;2022-10-16T01:28:02;13.30;;;2.60;;
58214;SDS011;44011;52.218;1.480;2022-10-16T01:30:30;14.20;;;2.22;;
58214;SDS011;44011;52.218;1.480;2022-10-16T01:33:35;10.80;;;2.78;;
58214;SDS011;44011;52.218;1.480;2022-10-16T01:35:58;10.93;;;2.17;;
58214;SDS011;44011;52.218;1.480;2022-10-16T01:38:46;11.38;;;2.45;;
58214;SDS011;44011;52.218;1.480;2022-10-16T01:43:53;11.93;;;2.25;;
58214;SDS011;44011;52.218;1.480;2022-10-16T01:46:22;10.85;;;2.03;;
58214;SDS011;44011;52.218;1.480;2022-10-16T01:48:49;19.77;;;2.88;;
58214;SDS011;44011;52.218;1.480;2022-10-16T01:51:16;10.05;;;2.40;;
58214;SDS011;44011;52.218;1.480;2022-10-16T01:53:43;17.25;;;3.10;;
58214;SDS011;44011;52.218;1.480;2022-10-16T01:56:12;11.50;;;2.60;;
58214;SDS011;44011;52.218;1.480;2022-10-16T01:58:40;11.35;;;3.25;;
58214;SDS011;44011;52.218;1.480;2022-10-16T02:01:08;9.23;;;2.03;;
58214;SDS011;44011;52.218;1.480;2022-10-16T02:03:36;11.85;;;2.08;;
58214;SDS011;44011;52.218;1.480;2022-10-16T02:06:03;13.23;;;2.55;;
58214;SDS011;44011;52.218;1.480;2022-10-16T02:08:28;10.18;;;2.00;;
58214;SDS011;44011;52.218;1.480;2022-10-16T02:10:55;13.85;;;2.40;;
58214;SDS011;44011;52.218;1.480;2022-10-16T02:13:29;10.63;;;2.95;;
58214;SDS011;44011;52.218;1.480;2022-10-16T02:15:58;17.10;;;2.88;;
58214;SDS011;44011;52.218;1.480;2022-10-16T02:18:23;16.05;;;2.45;;
58214;SDS011;44011;52.218;1.480;2022-10-16T02:24:35;13.40;;;2.63;;
58214;SDS011;44011;52.218;1.480;2022-10-16T02:29:24;13.52;;;2.63;;
58214;SDS011;44011;52.218;1.480;2022-10-16T02:31:52;12.60;;;3.33;;
58214;SDS011;44011;52.218;1.480;2022-10-16T02:34:21;10.55;;;2.20;;
58214;SDS011;44011;52.218;1.480;2022-10-16T02:36:48;7.75;;;1.83;;
58214;SDS011;44011;52.218;1.480;2022-10-16T02:39:14;16.08;;;2.92;;
58214;SDS011;44011;52.218;1.480;2022-10-16T02:41:41;10.40;;;2.17;;
58214;SDS011;44011;52.218;1.480;2022-10-16T02:44:06;12.10;;;1.88;;
58214;SDS011;44011;52.218;1.480;2022-10-16T02:46:32;13.00;;;2.38;;
58214;SDS011;44011;52.218;1.480;2022-10-16T02:48:58;15.00;;;2.90;;
58214;SDS011;44011;52.218;1.480;2022-10-16T02:51:23;11.23;;;2.55;;
58214;SDS011;44011;52.218;1.480;2022-10-16T02:53:49;13.50;;;2.20;;
58214;SDS011;44011;52.218;1.480;2022-10-16T02:56:14;10.05;;;2.42;;
58214;SDS011;44011;52.218;1.480;2022-10-16T02:58:40;10.00;;;2.60;;
58214;SDS011;44011;52.218;1.480;2022-10-16T03:01:05;14.70;;;2.65;;
58214;SDS011;44011;52.218;1.480;2022-10-16T03:03:31;12.35;;;2.10;;
58214;SDS011;44011;52.218;1.480;2022-10-16T03:05:57;28.20;;;5.55;;
58214;SDS011;44011;52.218;1.480;2022-10-16T03:08:22;13.18;;;2.15;;
58214;SDS011;44011;52.218;1.480;2022-10-16T03:10:50;9.70;;;2.40;;
58214;SDS011;44011;52.218;1.480;2022-10-16T03:13:16;15.20;;;2.70;;
58214;SDS011;44011;52.218;1.480;2022-10-16T03:15:42;13.57;;;2.28;;
58214;SDS011;44011;52.218;1.480;2022-10-16T03:18:08;13.20;;;2.13;;
58214;SDS011;44011;52.218;1.480;2022-10-16T03:20:34;9.90;;;2.05;;
58214;SDS011;44011;52.218;1.480;2022-10-16T03:22:59;16.73;;;2.85;;
58214;SDS011;44011;52.218;1.480;2022-10-16T03:25:24;10.70;;;1.90;;
58214;SDS011;44011;52.218;1.480;2022-10-16T03:27:50;8.90;;;1.60;;
58214;SDS011;44011;52.218;1.480;2022-10-16T03:30:15;9.82;;;2.15;;
58214;SDS011;44011;52.218;1.480;2022-10-16T03:32:41;10.07;;;2.35;;
58214;SDS011;44011;52.218;1.480;2022-10-16T03:35:07;8.55;;;1.92;;
58214;SDS011;44011;52.218;1.480;2022-10-16T03:37:32;13.82;;;2.60;;
58214;SDS011;44011;52.218;1.480;2022-10-16T03:39:58;11.45;;;2.22;;
58214;SDS011;44011;52.218;1.480;2022-10-16T03:42:24;9.77;;;2.38;;
58214;SDS011;44011;52.218;1.480;2022-10-16T03:44:49;9.95;;;2.10;;
58214;SDS011;44011;52.218;1.480;2022-10-16T03:47:15;7.13;;;2.50;;
58214;SDS011;44011;52.218;1.480;2022-10-16T03:49:41;8.60;;;2.35;;
58214;SDS011;44011;52.218;1.480;2022-10-16T03:52:06;12.38;;;2.55;;
58214;SDS011;44011;52.218;1.480;2022-10-16T03:54:32;8.90;;;1.80;;
58214;SDS011;44011;52.218;1.480;2022-10-16T03:56:57;12.07;;;1.85;;
58214;SDS011;44011;52.218;1.480;2022-10-16T03:59:22;10.02;;;2.20;;
58214;SDS011;44011;52.218;1.480;2022-10-16T04:01:48;18.23;;;2.65;;
58214;SDS011;44011;52.218;1.480;2022-10-16T04:04:13;12.77;;;2.45;;
58214;SDS011;44011;52.218;1.480;2022-10-16T04:06:39;8.90;;;1.77;;
58214;SDS011;44011;52.218;1.480;2022-10-16T04:09:04;9.77;;;1.77;;
58214;SDS011;44011;52.218;1.480;2022-10-16T04:11:30;9.35;;;1.85;;
58214;SDS011;44011;52.218;1.480;2022-10-16T04:13:55;11.43;;;2.00;;
58214;SDS011;44011;52.218;1.480;2022-10-16T04:16:21;12.77;;;2.15;;
58214;SDS011;44011;52.218;1.480;2022-10-16T04:18:46;9.38;;;1.70;;
58214;SDS011;44011;52.218;1.480;2022-10-16T04:21:12;9.27;;;2.70;;
58214;SDS011;44011;52.218;1.480;2022-10-16T04:23:37;6.45;;;1.75;;
58214;SDS011;44011;52.218;1.480;2022-10-16T04:26:03;9.93;;;1.80;;
58214;SDS011;44011;52.218;1.480;2022-10-16T04:28:29;5.13;;;1.30;;
58214;SDS011;44011;52.218;1.480;2022-10-16T04:30:54;7.65;;;1.83;;
58214;SDS011;44011;52.218;1.480;2022-10-16T04:33:20;13.45;;;2.45;;
58214;SDS011;44011;52.218;1.480;2022-10-16T04:35:45;7.32;;;1.30;;
58214;SDS011;44011;52.218;1.480;2022-10-16T04:38:11;9.23;;;1.42;;
58214;SDS011;44011;52.218;1.480;2022-10-16T04:40:36;9.32;;;1.48;;
58214;SDS011;44011;52.218;1.480;2022-10-16T04:43:05;11.77;;;1.83;;
58214;SDS011;44011;52.218;1.480;2022-10-16T04:45:31;8.30;;;1.63;;
58214;SDS011;44011;52.218;1.480;2022-10-16T04:47:57;10.60;;;1.75;;
58214;SDS011;44011;52.218;1.480;2022-10-16T04:50:23;12.95;;;2.40;;
58214;SDS011;44011;52.218;1.480;2022-10-16T04:52:48;6.53;;;1.70;;
58214;SDS011;44011;52.218;1.480;2022-10-16T04:55:14;10.35;;;1.88;;
58214;SDS011;44011;52.218;1.480;2022-10-16T04:57:40;8.20;;;1.30;;
58214;SDS011;44011;52.218;1.480;2022-10-16T05:00:05;6.60;;;1.50;;
58214;SDS011;44011;52.218;1.480;2022-10-16T05:02:32;6.90;;;1.48;;
58214;SDS011;44011;52.218;1.480;2022-10-16T05:04:58;8.25;;;1.52;;
58214;SDS011;44011;52.218;1.480;2022-10-16T05:07:23;16.30;;;2.05;;
58214;SDS011;44011;52.218;1.480;2022-10-16T05:09:49;7.30;;;1.80;;
58214;SDS011;44011;52.218;1.480;2022-10-16T05:12:14;7.90;;;1.30;;
58214;SDS011;44011;52.218;1.480;2022-10-16T05:14:40;8.57;;;1.63;;
58214;SDS011;44011;52.218;1.480;2022-10-16T05:17:05;11.40;;;1.70;;
58214;SDS011;44011;52.218;1.480;2022-10-16T05:19:31;7.30;;;1.55;;
58214;SDS011;44011;52.218;1.480;2022-10-16T05:21:56;11.07;;;2.35;;
58214;SDS011;44011;52.218;1.480;2022-10-16T05:24:22;8.15;;;1.40;;
58214;SDS011;44011;52.218;1.480;2022-10-16T05:26:48;9.23;;;1.88;;
58214;SDS011;44011;52.218;1.480;2022-10-16T05:29:14;8.32;;;1.67;;
58214;SDS011;44011;52.218;1.480;2022-10-16T05:31:39;8.95;;;1.30;;
58214;SDS011;44011;52.218;1.480;2022-10-16T05:34:05;6.57;;;1.40;;
58214;SDS011;44011;52.218;1.480;2022-10-16T05:36:30;4.95;;;1.40;;
58214;SDS011;44011;52.218;1.480;2022-10-16T05:38:55;7.68;;;1.67;;
58214;SDS011;44011;52.218;1.480;2022-10-16T05:41:21;8.38;;;1.58;;
58214;SDS011;44011;52.218;1.480;2022-10-16T05:43:48;5.85;;;1.70;;
58214;SDS011;44011;52.218;1.480;2022-10-16T05:46:14;14.85;;;2.05;;
58214;SDS011;44011;52.218;1.480;2022-10-16T05:48:40;5.35;;;2.28;;
58214;SDS011;44011;52.218;1.480;2022-10-16T05:51:07;14.25;;;2.35;;
58214;SDS011;44011;52.218;1.480;2022-10-16T05:53:34;9.75;;;2.55;;
58214;SDS011;44011;52.218;1.480;2022-10-16T05:56:01;9.10;;;1.60;;
58214;SDS011;44011;52.218;1.480;2022-10-16T05:58:30;5.22;;;1.23;;
58214;SDS011;44011;52.218;1.480;2022-10-16T06:03:25;12.77;;;1.75;;
58214;SDS011;44011;52.218;1.480;2022-10-16T06:05:51;7.30;;;1.67;;
58214;SDS011;44011;52.218;1.480;2022-10-16T06:08:17;13.70;;;1.55;;
58214;SDS011;44011;52.218;1.480;2022-10-16T06:10:44;8.77;;;1.48;;
58214;SDS011;44011;52.218;1.480;2022-10-16T06:13:10;17.58;;;2.00;;
58214;SDS011;44011;52.218;1.480;2022-10-16T06:15:37;8.45;;;1.45;;
58214;SDS011;44011;52.218;1.480;2022-10-16T06:18:04;3.42;;;1.40;;
58214;SDS011;44011;52.218;1.480;2022-10-16T06:20:30;6.25;;;1.45;;
58214;SDS011;44011;52.218;1.480;2022-10-16T06:22:56;10.23;;;1.70;;
58214;SDS011;44011;52.218;1.480;2022-10-16T06:25:22;7.13;;;2.03;;
58214;SDS011;44011;52.218;1.480;2022-10-16T06:27:47;7.63;;;1.75;;
58214;SDS011;44011;52.218;1.480;2022-10-16T06:30:13;7.47;;;1.95;;
58214;SDS011;44011;52.218;1.480;2022-10-16T06:32:38;9.60;;;1.73;;
58214;SDS011;44011;52.218;1.480;2022-10-16T06:35:04;12.85;;;2.92;;
58214;SDS011;44011;52.218;1.480;2022-10-16T06:37:30;8.90;;;1.33;;
58214;SDS011;44011;52.218;1.480;2022-10-16T06:39:55;8.25;;;1.42;;
58214;SDS011;44011;52.218;1.480;2022-10-16T06:42:21;6.22;;;1.10;;
58214;SDS011;44011;52.218;1.480;2022-10-16T06:44:46;8.63;;;1.42;;
58214;SDS011;44011;52.218;1.480;2022-10-16T06:47:12;8.18;;;2.25;;
58214;SDS011;44011;52.218;1.480;2022-10-16T06:49:37;13.45;;;1.77;;
58214;SDS011;44011;52.218;1.480;2022-10-16T06:52:02;5.40;;;1.65;;
58214;SDS011;44011;52.218;1.480;2022-10-16T06:54:28;9.65;;;1.40;;
58214;SDS011;44011;52.218;1.480;2022-10-16T06:56:54;10.60;;;1.42;;
58214;SDS011;44011;52.218;1.480;2022-10-16T06:59:22;7.78;;;2.30;;
58214;SDS011;44011;52.218;1.480;2022-10-16T07:01:48;7.45;;;1.75;;
58214;SDS011;44011;52.218;1.480;2022-10-16T07:04:13;11.90;;;1.92;;
58214;SDS011;44011;52.218;1.480;2022-10-16T07:06:39;13.05;;;4.40;;
58214;SDS011;44011;52.218;1.480;2022-10-16T07:09:06;3.58;;;1.05;;
58214;SDS011;44011;52.218;1.480;2022-10-16T07:11:33;8.18;;;1.65;;
58214;SDS011;44011;52.218;1.480;2022-10-16T07:13:59;6.85;;;1.33;;
58214;SDS011;44011;52.218;1.480;2022-10-16T07:16:28;7.97;;;2.17;;
58214;SDS011;44011;52.218;1.480;2022-10-16T07:18:55;10.70;;;2.00;;
58214;SDS011;44011;52.218;1.480;2022-10-16T07:21:25;5.65;;;1.45;;
58214;SDS011;44011;52.218;1.480;2022-10-16T07:23:52;6.03;;;1.35;;
58214;SDS011;44011;52.218;1.480;2022-10-16T07:26:18;7.03;;;2.00;;
58214;SDS011;44011;52.218;1.480;2022-10-16T07:28:44;11.23;;;2.58;;
58214;SDS011;44011;52.218;1.480;2022-10-16T07:31:11;6.78;;;1.75;;
58214;SDS011;44011;52.218;1.480;2022-10-16T07:33:38;12.23;;;1.73;;
58214;SDS011;44011;52.218;1.480;2022-10-16T07:36:05;6.60;;;1.38;;
58214;SDS011;44011;52.218;1.480;2022-10-16T07:38:31;8.80;;;1.83;;
58214;SDS011;44011;52.218;1.480;2022-10-16T07:40:57;5.03;;;1.30;;
58214;SDS011;44011;52.218;1.480;2022-10-16T07:43:27;7.95;;;2.28;;
58214;SDS011;44011;52.218;1.480;2022-10-16T07:45:52;5.75;;;1.65;;
58214;SDS011;44011;52.218;1.480;2022-10-16T07:48:18;9.10;;;1.50;;
58214;SDS011;44011;52.218;1.480;2022-10-16T07:50:45;8.95;;;1.70;;
58214;SDS011;44011;52.218;1.480;2022-10-16T07:53:10;8.63;;;1.38;;
58214;SDS011;44011;52.218;1.480;2022-10-16T07:55:36;12.23;;;1.27;;
58214;SDS011;44011;52.218;1.480;2022-10-16T07:58:02;6.93;;;1.73;;
58214;SDS011;44011;52.218;1.480;2022-10-16T08:00:28;7.38;;;1.55;;
58214;SDS011;44011;52.218;1.480;2022-10-16T08:02:53;8.63;;;1.42;;
58214;SDS011;44011;52.218;1.480;2022-10-16T08:05:19;9.57;;;2.90;;
58214;SDS011;44011;52.218;1.480;2022-10-16T08:07:48;3.35;;;1.35;;
58214;SDS011;44011;52.218;1.480;2022-10-16T08:10:15;5.47;;;1.40;;
58214;SDS011;44011;52.218;1.480;2022-10-16T08:12:42;7.40;;;1.88;;
58214;SDS011;44011;52.218;1.480;2022-10-16T08:15:07;11.63;;;1.95;;
58214;SDS011;44011;52.218;1.480;2022-10-16T08:17:33;7.85;;;1.48;;
58214;SDS011;44011;52.218;1.480;2022-10-16T08:19:59;15.50;;;3.35;;
58214;SDS011;44011;52.218;1.480;2022-10-16T08:22:24;9.32;;;1.52;;
58214;SDS011;44011;52.218;1.480;2022-10-16T08:24:50;8.13;;;1.63;;
58214;SDS011;44011;52.218;1.480;2022-10-16T08:27:15;9.50;;;2.40;;
58214;SDS011;44011;52.218;1.480;2022-10-16T08:29:41;7.22;;;1.30;;
58214;SDS011;44011;52.218;1.480;2022-10-16T08:32:06;8.30;;;1.73;;
58214;SDS011;44011;52.218;1.480;2022-10-16T08:34:32;7.63;;;1.50;;
58214;SDS011;44011;52.218;1.480;2022-10-16T08:36:57;7.20;;;1.40;;
58214;SDS011;44011;52.218;1.480;2022-10-16T08:39:23;4.25;;;1.05;;
58214;SDS011;44011;52.218;1.480;2022-10-16T08:41:53;7.75;;;1.35;;
58214;SDS011;44011;52.218;1.480;2022-10-16T08:47:48;5.50;;;1.92;;
58214;SDS011;44011;52.218;1.480;2022-10-16T08:50:24;8.57;;;1.58;;
58214;SDS011;44011;52.218;1.480;2022-10-16T08:52:53;7.10;;;1.63;;
58214;SDS011;44011;52.218;1.480;2022-10-16T08:56:04;7.75;;;1.70;;
58214;SDS011;44011;52.218;1.480;2022-10-16T08:58:16;9.35;;;1.40;;
58214;SDS011;44011;52.218;1.480;2022-10-16T09:00:47;8.48;;;2.05;;
58214;SDS011;44011;52.218;1.480;2022-10-16T09:14:29;6.82;;;1.98;;
58214;SDS011;44011;52.218;1.480;2022-10-16T09:17:25;11.77;;;1.42;;
58214;SDS011;44011;52.218;1.480;2022-10-16T09:25:29;8.95;;;1.55;;
58214;SDS011;44011;52.218;1.480;2022-10-16T09:27:55;5.18;;;1.55;;
58214;SDS011;44011;52.218;1.480;2022-10-16T09:30:21;6.88;;;1.13;;
58214;SDS011;44011;52.218;1.480;2022-10-16T09:32:49;7.75;;;1.38;;
58214;SDS011;44011;52.218;1.480;2022-10-16T09:35:27;4.13;;;1.15;;
58214;SDS011;44011;52.218;1.480;2022-10-16T09:37:57;7.47;;;1.02;;
58214;SDS011;44011;52.218;1.480;2022-10-16T09:40:27;7.50;;;1.30;;
58214;SDS011;44011;52.218;1.480;2022-10-16T09:43:40;6.90;;;1.33;;
58214;SDS011;44011;52.218;1.480;2022-10-16T09:48:20;9.70;;;1.45;;
58214;SDS011;44011;52.218;1.480;2022-10-16T09:50:54;7.47;;;1.33;;
58214;SDS011;44011;52.218;1.480;2022-10-16T09:53:21;7.40;;;1.52;;
58214;SDS011;44011;52.218;1.480;2022-10-16T09:55:51;9.15;;;1.55;;
58214;SDS011;44011;52.218;1.480;2022-10-16T09:58:20;7.00;;;1.67;;
58214;SDS011;44011;52.218;1.480;2022-10-16T10:00:53;2.25;;;1.02;;
58214;SDS011;44011;52.218;1.480;2022-10-16T10:06:06;4.82;;;1.52;;
58214;SDS011;44011;52.218;1.480;2022-10-16T10:08:40;9.90;;;1.30;;
58214;SDS011;44011;52.218;1.480;2022-10-16T10:11:06;5.88;;;1.35;;
58214;SDS011;44011;52.218;1.480;2022-10-16T10:13:31;10.60;;;1.20;;
58214;SDS011;44011;52.218;1.480;2022-10-16T10:15:57;7.07;;;1.17;;
58214;SDS011;44011;52.218;1.480;2022-10-16T10:18:23;3.58;;;1.10;;
58214;SDS011;44011;52.218;1.480;2022-10-16T10:20:59;3.78;;;1.10;;
58214;SDS011;44011;52.218;1.480;2022-10-16T10:23:26;5.00;;;1.40;;
58214;SDS011;44011;52.218;1.480;2022-10-16T10:28:28;7.03;;;1.05;;
58214;SDS011;44011;52.218;1.480;2022-10-16T10:31:08;7.22;;;1.50;;
58214;SDS011;44011;52.218;1.480;2022-10-16T10:47:24;5.13;;;1.13;;
58214;SDS011;44011;52.218;1.480;2022-10-16T10:55:10;2.30;;;0.70;;
58214;SDS011;44011;52.218;1.480;2022-10-16T11:06:14;3.10;;;0.93;;
58214;SDS011;44011;52.218;1.480;2022-10-16T11:08:45;5.43;;;1.13;;
58214;SDS011;44011;52.218;1.480;2022-10-16T11:11:23;2.28;;;0.90;;
58214;SDS011;44011;52.218;1.480;2022-10-16T11:16:35;5.30;;;1.35;;
58214;SDS011;44011;52.218;1.480;2022-10-16T11:22:06;5.03;;;1.20;;
58214;SDS011;44011;52.218;1.480;2022-10-16T11:30:04;4.65;;;1.10;;
58214;SDS011;44011;52.218;1.480;2022-10-16T11:32:47;4.07;;;1.08;;
58214;SDS011;44011;52.218;1.480;2022-10-16T11:35:22;3.28;;;0.95;;
58214;SDS011;44011;52.218;1.480;2022-10-16T11:37:50;5.82;;;1.15;;
58214;SDS011;44011;52.218;1.480;2022-10-16T11:40:22;5.05;;;0.98;;
58214;SDS011;44011;52.218;1.480;2022-10-16T11:43:22;5.20;;;0.73;;
58214;SDS011;44011;52.218;1.480;2022-10-16T11:45:51;2.85;;;1.15;;
58214;SDS011;44011;52.218;1.480;2022-10-16T11:48:32;6.07;;;1.10;;
58214;SDS011;44011;52.218;1.480;2022-10-16T11:51:08;3.22;;;0.80;;
58214;SDS011;44011;52.218;1.480;2022-10-16T11:54:20;1.67;;;0.70;;
58214;SDS011;44011;52.218;1.480;2022-10-16T11:56:59;2.75;;;0.90;;
58214;SDS011;44011;52.218;1.480;2022-10-16T12:10:36;3.00;;;1.08;;
58214;SDS011;44011;52.218;1.480;2022-10-16T12:13:05;2.05;;;0.70;;
58214;SDS011;44011;52.218;1.480;2022-10-16T12:18:42;3.67;;;0.57;;
58214;SDS011;44011;52.218;1.480;2022-10-16T12:21:09;7.68;;;1.40;;
58214;SDS011;44011;52.218;1.480;2022-10-16T12:23:46;4.85;;;1.17;;
58214;SDS011;44011;52.218;1.480;2022-10-16T12:26:29;5.85;;;0.95;;
58214;SDS011;44011;52.218;1.480;2022-10-16T12:29:12;4.53;;;0.85;;
58214;SDS011;44011;52.218;1.480;2022-10-16T12:31:43;5.60;;;1.17;;
58214;SDS011;44011;52.218;1.480;2022-10-16T12:34:19;5.00;;;1.75;;
58214;SDS011;44011;52.218;1.480;2022-10-16T12:36:47;9.70;;;1.40;;
58214;SDS011;44011;52.218;1.480;2022-10-16T12:39:27;3.90;;;1.05;;
58214;SDS011;44011;52.218;1.480;2022-10-16T12:42:17;3.30;;;1.55;;
58214;SDS011;44011;52.218;1.480;2022-10-16T12:48:00;6.80;;;1.00;;
58214;SDS011;44011;52.218;1.480;2022-10-16T12:50:29;1.95;;;0.80;;
58214;SDS011;44011;52.218;1.480;2022-10-16T12:53:00;2.88;;;0.77;;
58214;SDS011;44011;52.218;1.480;2022-10-16T12:55:27;8.48;;;0.90;;
58214;SDS011;44011;52.218;1.480;2022-10-16T13:01:18;7.35;;;1.42;;
58214;SDS011;44011;52.218;1.480;2022-10-16T13:14:14;4.32;;;1.13;;
58214;SDS011;44011;52.218;1.480;2022-10-16T13:19:33;4.57;;;1.00;;
58214;SDS011;44011;52.218;1.480;2022-10-16T13:24:46;6.07;;;1.02;;
58214;SDS011;44011;52.218;1.480;2022-10-16T13:29:52;4.20;;;1.17;;
58214;SDS011;44011;52.218;1.480;2022-10-16T13:32:20;5.00;;;1.17;;
58214;SDS011;44011;52.218;1.480;2022-10-16T13:34:46;5.68;;;1.33;;
58214;SDS011;44011;52.218;1.480;2022-10-16T13:37:24;7.18;;;2.45;;
58214;SDS011;44011;52.218;1.480;2022-10-16T13:39:50;7.32;;;1.25;;
58214;SDS011;44011;52.218;1.480;2022-10-16T13:42:25;4.82;;;1.70;;
58214;SDS011;44011;52.218;1.480;2022-10-16T13:44:52;8.00;;;1.98;;
58214;SDS011;44011;52.218;1.480;2022-10-16T13:47:26;7.70;;;1.52;;
58214;SDS011;44011;52.218;1.480;2022-10-16T13:49:59;7.07;;;2.13;;
58214;SDS011;44011;52.218;1.480;2022-10-16T13:52:26;6.40;;;1.23;;
58214;SDS011;44011;52.218;1.480;2022-10-16T13:54:51;10.85;;;1.52;;
58214;SDS011;44011;52.218;1.480;2022-10-16T13:57:17;4.15;;;1.10;;
58214;SDS011;44011;52.218;1.480;2022-10-16T13:59:43;5.10;;;1.30;;
58214;SDS011;44011;52.218;1.480;2022-10-16T14:02:15;9.75;;;2.20;;
58214;SDS011;44011;52.218;1.480;2022-10-16T14:05:02;5.38;;;1.30;;
58214;SDS011;44011;52.218;1.480;2022-10-16T14:07:30;8.02;;;1.90;;
58214;SDS011;44011;52.218;1.480;2022-10-16T14:09:58;8.02;;;1.90;;
58214;SDS011;44011;52.218;1.480;2022-10-16T14:12:30;12.00;;;2.15;;
58214;SDS011;44011;52.218;1.480;2022-10-16T14:14:56;11.52;;;1.98;;
58214;SDS011;44011;52.218;1.480;2022-10-16T14:17:32;7.50;;;2.05;;
58214;SDS011;44011;52.218;1.480;2022-10-16T14:20:02;5.25;;;1.75;;
58214;SDS011;44011;52.218;1.480;2022-10-16T14:24:59;8.63;;;1.45;;
58214;SDS011;44011;52.218;1.480;2022-10-16T14:27:32;6.28;;;1.20;;
58214;SDS011;44011;52.218;1.480;2022-10-16T14:32:33;6.72;;;1.38;;
58214;SDS011;44011;52.218;1.480;2022-10-16T14:34:59;11.13;;;2.08;;
58214;SDS011;44011;52.218;1.480;2022-10-16T14:37:28;4.35;;;1.65;;
58214;SDS011;44011;52.218;1.480;2022-10-16T14:39:55;9.15;;;1.60;;
58214;SDS011;44011;52.218;1.480;2022-10-16T14:42:21;8.52;;;1.80;;
58214;SDS011;44011;52.218;1.480;2022-10-16T14:44:49;6.00;;;1.58;;
58214;SDS011;44011;52.218;1.480;2022-10-16T14:47:20;6.45;;;1.85;;
58214;SDS011;44011;52.218;1.480;2022-10-16T14:49:50;8.63;;;2.30;;
58214;SDS011;44011;52.218;1.480;2022-10-16T14:52:16;6.60;;;1.77;;
58214;SDS011;44011;52.218;1.480;2022-10-16T14:54:42;11.98;;;2.00;;
58214;SDS011;44011;52.218;1.480;2022-10-16T14:57:18;6.20;;;1.63;;
58214;SDS011;44011;52.218;1.480;2022-10-16T14:59:45;11.45;;;2.03;;
58214;SDS011;44011;52.218;1.480;2022-10-16T15:04:47;7.50;;;2.78;;
58214;SDS011;44011;52.218;1.480;2022-10-16T15:07:13;18.13;;;3.10;;
58214;SDS011;44011;52.218;1.480;2022-10-16T15:09:38;12.73;;;2.97;;
58214;SDS011;44011;52.218;1.480;2022-10-16T15:12:04;13.55;;;3.65;;
58214;SDS011;44011;52.218;1.480;2022-10-16T15:14:29;9.75;;;3.17;;
58214;SDS011;44011;52.218;1.480;2022-10-16T15:16:55;10.20;;;3.67;;
58214;SDS011;44011;52.218;1.480;2022-10-16T15:19:20;12.43;;;3.35;;
58214;SDS011;44011;52.218;1.480;2022-10-16T15:21:46;17.80;;;3.47;;
58214;SDS011;44011;52.218;1.480;2022-10-16T15:24:13;14.15;;;3.83;;
58214;SDS011;44011;52.218;1.480;2022-10-16T15:26:39;14.93;;;4.25;;
58214;SDS011;44011;52.218;1.480;2022-10-16T15:29:04;17.10;;;3.38;;
58214;SDS011;44011;52.218;1.480;2022-10-16T15:31:30;14.13;;;3.03;;
58214;SDS011;44011;52.218;1.480;2022-10-16T15:33:56;7.25;;;2.20;;
58214;SDS011;44011;52.218;1.480;2022-10-16T15:36:27;18.27;;;2.58;;
58214;SDS011;44011;52.218;1.480;2022-10-16T15:38:54;10.00;;;2.08;;
58214;SDS011;44011;52.218;1.480;2022-10-16T15:41:20;16.33;;;3.33;;
58214;SDS011;44011;52.218;1.480;2022-10-16T15:43:47;8.50;;;2.72;;
58214;SDS011;44011;52.218;1.480;2022-10-16T15:46:14;9.68;;;3.05;;
58214;SDS011;44011;52.218;1.480;2022-10-16T15:48:40;11.77;;;2.75;;
58214;SDS011;44011;52.218;1.480;2022-10-16T15:51:06;15.35;;;2.70;;
58214;SDS011;44011;52.218;1.480;2022-10-16T15:53:32;12.75;;;2.60;;
58214;SDS011;44011;52.218;1.480;2022-10-16T15:56:02;9.15;;;3.03;;
58214;SDS011;44011;52.218;1.480;2022-10-16T15:58:28;14.45;;;4.22;;
58214;SDS011;44011;52.218;1.480;2022-10-16T16:00:55;13.10;;;4.10;;
58214;SDS011;44011;52.218;1.480;2022-10-16T16:03:22;13.20;;;3.17;;
58214;SDS011;44011;52.218;1.480;2022-10-16T16:05:48;8.20;;;3.33;;
58214;SDS011;44011;52.218;1.480;2022-10-16T16:08:13;16.17;;;4.88;;
58214;SDS011;44011;52.218;1.480;2022-10-16T16:10:39;10.25;;;3.00;;
58214;SDS011;44011;52.218;1.480;2022-10-16T16:13:04;16.13;;;3.47;;
58214;SDS011;44011;52.218;1.480;2022-10-16T16:15:30;10.48;;;3.22;;
58214;SDS011;44011;52.218;1.480;2022-10-16T16:17:55;17.20;;;4.07;;
58214;SDS011;44011;52.218;1.480;2022-10-16T16:20:21;12.48;;;3.67;;
58214;SDS011;44011;52.218;1.480;2022-10-16T16:22:47;19.00;;;5.13;;
58214;SDS011;44011;52.218;1.480;2022-10-16T16:25:12;11.18;;;3.85;;
58214;SDS011;44011;52.218;1.480;2022-10-16T16:27:38;10.52;;;3.22;;
58214;SDS011;44011;52.218;1.480;2022-10-16T16:30:04;13.18;;;3.17;;
58214;SDS011;44011;52.218;1.480;2022-10-16T16:32:32;13.43;;;3.70;;
58214;SDS011;44011;52.218;1.480;2022-10-16T16:34:59;9.55;;;2.45;;
58214;SDS011;44011;52.218;1.480;2022-10-16T16:37:25;11.23;;;2.72;;
58214;SDS011;44011;52.218;1.480;2022-10-16T16:39:50;13.35;;;2.97;;
58214;SDS011;44011;52.218;1.480;2022-10-16T16:42:16;7.93;;;2.45;;
58214;SDS011;44011;52.218;1.480;2022-10-16T16:44:41;10.05;;;2.85;;
58214;SDS011;44011;52.218;1.480;2022-10-16T16:47:06;14.38;;;3.35;;
58214;SDS011;44011;52.218;1.480;2022-10-16T16:49:32;10.27;;;2.85;;
58214;SDS011;44011;52.218;1.480;2022-10-16T16:51:57;11.38;;;2.17;;
58214;SDS011;44011;52.218;1.480;2022-10-16T16:54:23;12.30;;;2.38;;
58214;SDS011;44011;52.218;1.480;2022-10-16T16:56:48;8.63;;;2.10;;